createdAt,value
2022-08-24T00:05:12.705Z,7.40
2022-08-24T00:08:26.290Z,5.30
2022-08-24T00:11:28.116Z,9.60
2022-08-24T00:21:19.273Z,5.40
2022-08-24T00:24:27.055Z,6.80
2022-08-24T00:27:34.346Z,4.00
2022-08-24T00:30:54.115Z,7.70
2022-08-24T00:34:05.079Z,6.00
2022-08-24T00:37:12.124Z,4.50
2022-08-24T00:40:48.256Z,8.80
2022-08-24T00:43:50.159Z,8.20
2022-08-24T00:47:00.113Z,3.20
2022-08-24T00:50:09.053Z,6.90
2022-08-24T00:53:24.105Z,5.60
2022-08-24T01:00:20.020Z,6.60
2022-08-24T01:03:36.055Z,3.30
2022-08-24T01:10:30.198Z,5.60
2022-08-24T01:13:37.079Z,6.10
2022-08-24T01:16:49.048Z,4.80
2022-08-24T01:19:56.116Z,7.00
2022-08-24T01:23:09.159Z,4.60
2022-08-24T01:32:32.201Z,4.50
2022-08-24T01:35:43.137Z,6.80
2022-08-24T01:38:53.081Z,7.30
2022-08-24T01:48:50.085Z,9.90
2022-08-24T01:52:11.637Z,4.10
2022-08-24T01:55:22.649Z,4.80
2022-08-24T01:58:34.077Z,4.40
2022-08-24T02:01:37.621Z,7.80
2022-08-24T02:04:45.109Z,6.60
2022-08-24T02:11:34.400Z,3.90
2022-08-24T02:17:48.113Z,5.60
2022-08-24T02:24:49.072Z,3.20
2022-08-24T02:28:00.129Z,4.60
2022-08-24T02:31:21.846Z,6.20
2022-08-24T02:34:26.100Z,4.30
2022-08-24T02:37:41.117Z,3.90
2022-08-24T02:44:33.112Z,11.60
2022-08-24T02:47:48.076Z,5.10
2022-08-24T02:57:51.209Z,4.20
2022-08-24T03:01:05.175Z,6.70
2022-08-24T03:04:21.103Z,6.20
2022-08-24T03:11:45.376Z,7.60
2022-08-24T03:15:00.745Z,10.00
2022-08-24T03:22:16.777Z,10.20
2022-08-24T03:25:39.414Z,8.00
2022-08-24T03:28:52.749Z,9.90
2022-08-24T03:32:04.784Z,8.20
2022-08-24T03:39:54.438Z,9.00
2022-08-24T03:54:29.732Z,11.00
2022-08-24T04:01:26.854Z,7.90
2022-08-24T04:05:34.882Z,10.90
2022-08-24T04:16:34.573Z,13.50
2022-08-24T04:30:57.713Z,24.80
2022-08-24T04:34:11.988Z,20.20
2022-08-24T04:45:06.832Z,21.60
2022-08-24T05:03:26.936Z,16.30
2022-08-24T05:59:13.447Z,18.20
2022-08-24T06:01:45.557Z,21.80
2022-08-24T06:04:14.370Z,13.80
2022-08-24T06:06:42.801Z,27.90
2022-08-24T06:09:12.642Z,23.80
2022-08-24T06:11:41.687Z,26.30
2022-08-24T06:14:16.128Z,16.20
2022-08-24T06:16:52.615Z,17.50
2022-08-24T06:19:23.825Z,12.60
2022-08-24T06:21:54.459Z,16.90
2022-08-24T06:27:23.841Z,19.30
2022-08-24T06:30:01.176Z,21.10
2022-08-24T06:32:54.786Z,18.60
2022-08-24T06:35:28.469Z,14.30
2022-08-24T06:37:58.039Z,18.50
2022-08-24T06:40:26.519Z,18.10
2022-08-24T06:42:54.998Z,11.00
2022-08-24T06:45:35.652Z,19.30
2022-08-24T06:48:04.141Z,17.80
2022-08-24T06:50:32.351Z,13.30
2022-08-24T06:53:01.869Z,11.70
2022-08-24T06:55:29.860Z,18.20
2022-08-24T06:57:58.544Z,13.90
2022-08-24T07:00:26.840Z,15.20
2022-08-24T07:02:54.956Z,13.40
2022-08-24T07:05:25.738Z,9.80
2022-08-24T07:08:14.249Z,9.30
2022-08-24T07:10:48.048Z,12.00
2022-08-24T07:13:19.814Z,11.80
2022-08-24T07:15:54.681Z,9.70
2022-08-24T07:18:29.176Z,8.40
2022-08-24T07:21:19.343Z,19.00
2022-08-24T07:23:51.022Z,9.70
2022-08-24T07:26:23.689Z,7.80
2022-08-24T07:29:01.270Z,11.10
2022-08-24T07:31:35.643Z,11.80
2022-08-24T07:34:53.701Z,9.60
2022-08-24T07:37:44.080Z,10.70
2022-08-24T07:40:20.080Z,10.50
2022-08-24T07:42:53.465Z,14.90
2022-08-24T07:45:23.068Z,8.50
2022-08-24T07:47:56.076Z,10.40
2022-08-24T07:50:39.017Z,20.50
2022-08-24T07:53:54.383Z,12.60
2022-08-24T07:57:26.829Z,8.90
2022-08-24T08:00:41.967Z,9.00
2022-08-24T08:03:53.797Z,8.80
2022-08-24T08:06:23.551Z,15.50
2022-08-24T08:09:25.879Z,7.20
2022-08-24T08:16:00.526Z,6.50
2022-08-24T08:19:33.034Z,8.90
2022-08-24T08:25:59.899Z,6.90
2022-08-24T08:33:18.398Z,8.80
2022-08-24T08:36:13.523Z,8.20
2022-08-24T08:39:25.314Z,11.40
2022-08-24T08:42:48.960Z,9.20
2022-08-24T08:45:30.853Z,8.50
2022-08-24T08:49:09.522Z,6.00
2022-08-24T08:52:39.623Z,4.70
2022-08-24T08:55:53.460Z,6.00
2022-08-24T08:59:17.299Z,9.50
2022-08-24T09:02:42.456Z,8.90
2022-08-24T09:13:40.314Z,7.00
2022-08-24T09:20:54.076Z,9.40
2022-08-24T09:24:11.991Z,8.30
2022-08-24T09:37:57.011Z,8.90
2022-08-24T09:41:19.619Z,9.60
2022-08-24T09:44:26.873Z,9.00
2022-08-24T09:47:40.060Z,6.20
2022-08-24T09:50:47.799Z,9.60
2022-08-24T09:54:07.259Z,8.10
2022-08-24T09:57:44.292Z,7.80
2022-08-24T10:01:00.056Z,14.40
2022-08-24T10:04:19.294Z,6.90
2022-08-24T10:07:31.239Z,13.40
2022-08-24T10:13:57.845Z,5.40
2022-08-24T10:17:17.264Z,6.10
2022-08-24T10:20:20.157Z,8.70
2022-08-24T10:23:40.807Z,8.20
2022-08-24T10:26:41.842Z,12.50
2022-08-24T10:33:26.125Z,9.40
2022-08-24T10:36:37.829Z,9.40
2022-08-24T11:01:21.487Z,9.40
2022-08-24T11:04:30.349Z,5.40
2022-08-24T11:07:50.927Z,8.80
2022-08-24T11:14:33.973Z,6.90
2022-08-24T11:28:29.165Z,4.50
2022-08-24T12:20:08.550Z,7.70
2022-08-24T14:09:26.444Z,5.00
2022-08-24T14:26:40.328Z,7.80
2022-08-24T14:29:46.036Z,5.20
2022-08-24T14:32:42.369Z,2.80
2022-08-24T14:42:14.271Z,4.40
2022-08-24T14:44:52.593Z,5.40
2022-08-24T14:47:58.459Z,3.80
2022-08-24T14:50:36.127Z,6.30
2022-08-24T14:57:42.465Z,5.50
2022-08-24T15:11:39.533Z,5.00
2022-08-24T15:14:49.328Z,9.80
2022-08-24T15:21:39.995Z,4.80
2022-08-24T15:24:37.425Z,9.10
2022-08-24T15:31:38.080Z,7.00
2022-08-24T15:35:00.628Z,7.90
2022-08-24T15:38:14.402Z,5.30
2022-08-24T15:41:32.409Z,9.30
2022-08-24T15:44:38.059Z,7.10
2022-08-24T15:48:43.679Z,5.70
2022-08-24T15:51:58.256Z,11.50
2022-08-24T15:55:08.107Z,8.50
2022-08-24T15:58:20.023Z,4.70
2022-08-24T16:01:34.986Z,8.60
2022-08-24T16:19:25.984Z,6.60
2022-08-24T16:26:28.901Z,6.20
2022-08-24T16:29:45.999Z,11.80
2022-08-24T16:33:32.292Z,4.40
2022-08-24T16:36:20.039Z,9.20
2022-08-24T16:38:50.265Z,6.10
2022-08-24T16:41:22.346Z,5.20
2022-08-24T16:43:50.369Z,10.40
2022-08-24T16:46:22.027Z,7.30
2022-08-24T16:48:50.610Z,7.30
2022-08-24T16:51:18.572Z,6.70
2022-08-24T16:53:46.526Z,6.00
2022-08-24T16:56:16.858Z,5.50
2022-08-24T16:58:47.393Z,7.00
2022-08-24T17:01:17.079Z,6.60
2022-08-24T17:03:50.625Z,7.60
2022-08-24T17:06:20.302Z,6.30
2022-08-24T17:09:04.631Z,4.70
2022-08-24T17:11:33.376Z,7.10
2022-08-24T17:14:01.283Z,10.10
2022-08-24T17:16:29.368Z,15.70
2022-08-24T17:19:02.510Z,12.20
2022-08-24T17:21:32.149Z,11.50
2022-08-24T17:24:00.132Z,5.20
2022-08-24T17:26:30.744Z,8.10
2022-08-24T17:29:03.179Z,8.40
2022-08-24T17:31:31.983Z,7.60
2022-08-24T17:34:00.451Z,9.70
2022-08-24T17:36:32.443Z,5.70
2022-08-24T17:39:02.289Z,7.20
2022-08-24T17:41:30.233Z,6.30
2022-08-24T17:43:58.630Z,8.50
2022-08-24T17:46:29.621Z,8.30
2022-08-24T17:48:59.807Z,8.20
2022-08-24T17:51:27.981Z,5.70
2022-08-24T17:53:55.909Z,6.70
2022-08-24T17:56:24.876Z,8.90
2022-08-24T17:59:04.257Z,10.00
2022-08-24T18:01:32.799Z,7.20
2022-08-24T18:04:00.723Z,9.50
2022-08-24T18:06:28.832Z,7.30
2022-08-24T18:09:01.617Z,6.20
2022-08-24T18:11:29.539Z,5.10
2022-08-24T18:13:57.613Z,6.90
2022-08-24T18:16:28.426Z,4.70
2022-08-24T18:18:56.877Z,9.70
2022-08-24T18:21:24.851Z,5.50
2022-08-24T18:23:53.280Z,9.20
2022-08-24T18:26:28.003Z,10.90
2022-08-24T18:30:00.410Z,8.00
2022-08-24T18:33:09.626Z,9.20
2022-08-24T18:35:37.964Z,6.30
2022-08-24T18:38:07.091Z,5.90
2022-08-24T18:40:36.451Z,8.90
2022-08-24T18:43:25.949Z,13.60
2022-08-24T18:46:07.244Z,7.70
2022-08-24T18:48:36.312Z,5.00
2022-08-24T18:51:06.327Z,6.00
2022-08-24T18:53:37.127Z,4.20
2022-08-24T18:56:19.366Z,7.90
2022-08-24T18:58:54.936Z,6.20
2022-08-24T19:01:23.328Z,10.30
2022-08-24T19:04:12.028Z,5.30
2022-08-24T19:06:45.355Z,10.00
2022-08-24T19:09:23.278Z,6.70
2022-08-24T19:11:57.250Z,6.80
2022-08-24T19:14:26.542Z,4.10
2022-08-24T19:17:11.341Z,10.10
2022-08-24T19:20:02.286Z,5.50
2022-08-24T19:22:51.352Z,6.70
2022-08-24T19:25:43.203Z,5.90
2022-08-24T19:28:31.500Z,6.30
2022-08-24T19:31:13.926Z,7.40
2022-08-24T19:34:05.855Z,8.60
2022-08-24T19:36:35.374Z,4.20
2022-08-24T19:39:08.901Z,5.10
2022-08-24T19:42:17.315Z,7.90
2022-08-24T19:45:11.282Z,5.90
2022-08-24T19:48:12.611Z,9.40
2022-08-24T19:51:09.782Z,5.60
2022-08-24T19:54:05.180Z,9.50
2022-08-24T19:56:54.420Z,9.40
2022-08-24T19:59:37.417Z,13.20
2022-08-24T20:02:11.817Z,7.70
2022-08-24T20:05:02.933Z,7.10
2022-08-24T20:07:32.776Z,7.30
2022-08-24T20:10:22.534Z,8.80
2022-08-24T20:13:12.999Z,5.50
2022-08-24T20:16:20.872Z,5.70
2022-08-24T20:18:49.660Z,10.20
2022-08-24T20:21:31.059Z,10.50
2022-08-24T20:24:26.786Z,5.60
2022-08-24T20:27:04.170Z,6.60
2022-08-24T20:29:36.320Z,9.20
2022-08-24T20:32:06.173Z,13.30
2022-08-24T20:34:35.566Z,6.60
2022-08-24T20:37:23.841Z,6.30
2022-08-24T20:40:13.274Z,8.00
2022-08-24T20:43:04.673Z,6.40
2022-08-24T20:46:14.705Z,5.80
2022-08-24T20:48:46.926Z,9.10
2022-08-24T20:51:45.579Z,9.30
2022-08-24T20:54:39.476Z,12.50
2022-08-24T20:57:17.059Z,8.70
2022-08-24T21:00:00.877Z,6.90
2022-08-24T21:02:45.919Z,8.30
2022-08-24T21:05:54.008Z,5.50
2022-08-24T21:08:43.205Z,7.90
2022-08-24T21:11:12.861Z,9.50
2022-08-24T21:13:43.369Z,7.30
2022-08-24T21:16:18.807Z,5.90
2022-08-24T21:21:39.573Z,9.90
2022-08-24T21:24:10.772Z,6.10
2022-08-24T21:26:59.504Z,7.40
2022-08-24T21:29:59.512Z,6.60
2022-08-24T21:32:57.877Z,11.30
2022-08-24T21:35:26.404Z,9.50
2022-08-24T21:38:15.305Z,7.40
2022-08-24T21:40:47.269Z,12.20
2022-08-24T21:43:30.327Z,8.30
2022-08-24T21:46:00.923Z,8.20
2022-08-24T21:48:33.725Z,9.20
2022-08-24T21:51:05.093Z,7.20
2022-08-24T21:53:54.884Z,5.20
2022-08-24T21:56:43.531Z,7.40
2022-08-24T21:59:11.515Z,8.60
2022-08-24T22:02:20.534Z,6.70
2022-08-24T22:04:56.225Z,6.60
2022-08-24T22:07:25.539Z,11.60
2022-08-24T22:09:55.158Z,9.30
2022-08-24T22:12:43.645Z,6.10
2022-08-24T22:15:23.295Z,6.90
2022-08-24T22:18:15.671Z,9.50
2022-08-24T22:20:53.860Z,8.90
2022-08-24T22:23:24.845Z,5.70
2022-08-24T22:26:33.414Z,8.90
2022-08-24T22:29:05.287Z,5.90
2022-08-24T22:31:53.361Z,4.70
2022-08-24T22:34:42.932Z,4.70
2022-08-24T22:37:34.096Z,5.70
2022-08-24T22:40:26.024Z,11.40
2022-08-24T22:43:14.483Z,10.60
2022-08-24T22:46:16.192Z,7.20
2022-08-24T22:48:50.189Z,9.60
2022-08-24T22:51:40.602Z,9.10
2022-08-24T22:54:41.036Z,10.30
2022-08-24T22:57:20.527Z,11.30
2022-08-24T22:59:48.464Z,5.60
2022-08-24T23:02:17.506Z,5.30
2022-08-24T23:04:49.933Z,7.10
2022-08-24T23:07:18.911Z,11.00
2022-08-24T23:09:48.023Z,7.20
2022-08-24T23:12:32.282Z,5.00
2022-08-24T23:15:01.378Z,6.40
2022-08-24T23:17:29.375Z,4.40
2022-08-24T23:20:00.762Z,7.90
2022-08-24T23:22:34.615Z,8.20
2022-08-24T23:25:02.740Z,7.70
2022-08-24T23:27:35.674Z,10.20
2022-08-24T23:30:11.305Z,6.60
2022-08-24T23:32:39.742Z,6.60
2022-08-24T23:35:08.410Z,8.40
2022-08-24T23:37:36.835Z,4.60
2022-08-24T23:40:05.552Z,7.40
2022-08-24T23:42:33.662Z,11.90
2022-08-24T23:45:01.740Z,6.80
2022-08-24T23:47:35.657Z,4.60
2022-08-24T23:50:06.767Z,8.00
2022-08-24T23:52:40.503Z,10.80
2022-08-24T23:55:21.447Z,6.80
2022-08-24T23:58:10.851Z,9.50
